Portada
METAR-TAF:

METAR-TAF

Aeropuertos :

Bishop, California, Estados Unidos

latitud: 37-22-16N, longitud: 118-21-29W, altitud: 1256 m

Observación

El informe se hizo hace 33 minutos, a las 19:56 UTC
Viento calma
Temperatura 34°C
Humedad 3%
Presión 1017 hPa
Visibilidad: 16.1 km
Cielo despejado

METAR: KBIH 221956Z AUTO 00000KT 10SM CLR 34/M16 A3002 RMK AO2 SLP106 T03391156

Hora: 13:29 (20:29 UTC)

Pronóstico

El informe se hizo hace 3 horas y 9 minutos, a las 17:20 UTC
Pronóstico válido del 22 a las 18 UTC al 23 a las 18 UTC
Viento 5 kt con dirección variable
Visibilidad: 10 km
Cielo despejado
A partir de las 22 a las 2300 UTC
Viento 7 kt del sur
Visibilidad: 10 km
Cielo despejado
A partir de las 23 a las 0300 UTC
Viento 10 kt del norte-noroeste
Visibilidad: 10 km
Cielo despejado

TAF: KBIH 221720Z 2218/2318 VRB05KT P6SM SKC FM222300 17007KT P6SM SKC FM230300 34010KT P6SM SKC

Observaciones y pronósticos meteorológicos de más de 4000 aeropuertos (mensajes METAR y TAF).

Los puntos amarillos y rojos representan las estaciones disponibles.

Ponga el ratón en el punto deseado para ver el nombre de la estación.

Haga clic para ver las observaciones y los pronósticos meteorológicos.

Para cambiar el mapa : haga clic en los botones verdes con una cruz de color negro para hacer un zoom, en el botón verde con un guión para alejar o en las flechas verdes para mapas adyacentes.


METAR-TAF: